createdAt,value
2023-04-02T00:00:37.459Z,79.21
2023-04-02T00:05:54.977Z,79.27
2023-04-02T00:11:02.441Z,79.86
2023-04-02T00:16:12.495Z,79.53
2023-04-02T00:21:30.571Z,80.00
2023-04-02T00:26:44.584Z,78.81
2023-04-02T00:31:53.220Z,77.81
2023-04-02T00:36:55.804Z,78.65
2023-04-02T00:42:05.907Z,78.44
2023-04-02T00:47:48.203Z,78.00
2023-04-02T00:52:52.884Z,77.99
2023-04-02T00:57:59.993Z,78.62
2023-04-02T01:03:37.246Z,78.19
2023-04-02T01:08:58.518Z,79.03
2023-04-02T01:14:12.944Z,78.92
2023-04-02T01:19:54.395Z,79.57
2023-04-02T01:24:58.670Z,79.60
2023-04-02T01:30:03.607Z,79.29
2023-04-02T01:35:07.052Z,79.93
2023-04-02T01:40:47.072Z,79.89
2023-04-02T01:45:50.320Z,80.30
2023-04-02T01:50:55.374Z,79.95
2023-04-02T01:56:01.719Z,79.65
2023-04-02T02:01:17.228Z,79.12
2023-04-02T02:06:20.120Z,79.97
2023-04-02T02:11:27.530Z,79.04
2023-04-02T02:16:32.035Z,79.70
2023-04-02T02:21:46.389Z,79.65
2023-04-02T02:27:07.831Z,79.85
2023-04-02T02:32:15.713Z,80.72
2023-04-02T02:37:29.105Z,81.14
2023-04-02T02:42:40.036Z,81.00
2023-04-02T02:47:46.056Z,81.25
2023-04-02T02:52:55.124Z,80.81
2023-04-02T02:58:28.282Z,80.41
2023-04-02T03:03:41.510Z,81.45
2023-04-02T03:08:52.846Z,81.16
2023-04-02T03:14:23.176Z,80.65
2023-04-02T03:19:59.473Z,81.27
2023-04-02T03:25:16.988Z,81.02
2023-04-02T03:30:45.677Z,82.11
2023-04-02T03:36:03.688Z,80.74
2023-04-02T03:41:36.414Z,81.76
2023-04-02T03:46:44.785Z,81.26
2023-04-02T03:52:04.898Z,81.16
2023-04-02T03:57:33.723Z,81.43
2023-04-02T04:02:53.604Z,81.56
2023-04-02T04:08:34.728Z,81.17
2023-04-02T04:14:09.771Z,81.25
2023-04-02T04:19:39.383Z,81.54
2023-04-02T04:24:46.018Z,81.75
2023-04-02T04:30:03.373Z,82.54
2023-04-02T04:35:29.906Z,82.99
2023-04-02T04:40:37.562Z,83.26
2023-04-02T04:46:44.747Z,82.12
2023-04-02T04:52:06.227Z,82.01
2023-04-02T04:57:36.723Z,82.68
2023-04-02T05:03:03.947Z,83.33
2023-04-02T05:08:35.583Z,83.63
2023-04-02T05:13:55.082Z,84.08
2023-04-02T05:19:45.827Z,83.88
2023-04-02T05:25:14.372Z,83.82
2023-04-02T05:30:56.607Z,83.75
2023-04-02T05:36:12.061Z,82.63
2023-04-02T05:41:37.006Z,82.32
2023-04-02T05:46:58.768Z,82.32
2023-04-02T05:52:05.072Z,83.37
2023-04-02T05:57:17.652Z,83.77
2023-04-02T06:02:41.616Z,83.58
2023-04-02T06:07:56.336Z,84.13
2023-04-02T06:13:10.982Z,83.20
2023-04-02T06:18:20.515Z,83.65
2023-04-02T06:23:57.067Z,82.37
2023-04-02T06:29:15.706Z,84.55
2023-04-02T06:34:21.838Z,83.62
2023-04-02T06:39:29.823Z,84.07
2023-04-02T06:44:36.832Z,84.17
2023-04-02T06:50:27.051Z,84.57
2023-04-02T06:55:47.366Z,83.85
2023-04-02T07:00:53.370Z,83.86
2023-04-02T07:06:06.967Z,83.59
2023-04-02T07:11:18.740Z,84.16
2023-04-02T07:16:26.629Z,83.74
2023-04-02T07:21:29.947Z,84.33
2023-04-02T07:26:33.050Z,83.51
2023-04-02T07:31:35.490Z,84.22
2023-04-02T07:36:37.823Z,82.81
2023-04-02T07:41:58.643Z,82.40
2023-04-02T07:47:01.257Z,82.13
2023-04-02T07:52:04.253Z,82.25
2023-04-02T07:57:06.395Z,80.78
2023-04-02T08:02:21.525Z,81.99
2023-04-02T08:07:23.934Z,82.43
2023-04-02T08:12:26.469Z,81.48
2023-04-02T08:17:31.491Z,81.78
2023-04-02T08:22:34.209Z,81.34
2023-04-02T08:27:36.464Z,81.02
2023-04-02T08:32:41.317Z,81.74
2023-04-02T08:37:44.047Z,79.88
2023-04-02T08:43:18.606Z,79.22
2023-04-02T08:48:21.524Z,79.34
2023-04-02T08:53:31.414Z,80.09
2023-04-02T08:58:42.502Z,81.58
2023-04-02T09:03:50.700Z,78.96
2023-04-02T09:08:54.490Z,78.83
2023-04-02T09:19:32.192Z,77.59
2023-04-02T09:24:35.915Z,77.72
2023-04-02T09:29:45.970Z,76.79
2023-04-02T09:34:48.221Z,75.13
2023-04-02T09:39:50.576Z,74.63
2023-04-02T09:44:52.908Z,75.69
2023-04-02T09:49:55.611Z,75.44
2023-04-02T09:55:16.300Z,75.08
2023-04-02T10:00:31.446Z,74.03
2023-04-02T10:05:44.530Z,74.16
2023-04-02T10:10:55.511Z,72.99
2023-04-02T10:16:38.398Z,73.45
2023-04-02T10:21:43.248Z,72.12
2023-04-02T10:27:27.894Z,71.85
2023-04-02T10:32:57.959Z,72.17
2023-04-02T10:38:34.902Z,71.56
2023-04-02T10:44:12.753Z,71.99
2023-04-02T10:49:58.929Z,71.09
2023-04-02T10:55:13.627Z,71.80
2023-04-02T11:00:29.129Z,70.45
2023-04-02T11:05:58.498Z,68.11
2023-04-02T11:11:15.895Z,71.87
2023-04-02T11:16:18.704Z,69.45
2023-04-02T11:21:51.103Z,69.46
2023-04-02T11:27:12.216Z,68.60
2023-04-02T11:32:26.972Z,68.75
2023-04-02T11:37:44.963Z,66.87
2023-04-02T11:42:50.591Z,65.54
2023-04-02T11:48:02.294Z,68.32
2023-04-02T11:53:21.966Z,66.40
2023-04-02T11:59:21.588Z,66.38
2023-04-02T12:05:14.538Z,67.76
2023-04-02T12:10:22.766Z,67.62
2023-04-02T12:15:46.996Z,68.51
2023-04-02T12:20:56.057Z,66.17
2023-04-02T12:26:30.346Z,63.60
2023-04-02T12:31:33.733Z,63.22
2023-04-02T12:36:36.097Z,61.44
2023-04-02T12:41:38.527Z,62.97
2023-04-02T12:46:41.169Z,62.62
2023-04-02T12:51:43.571Z,61.53
2023-04-02T12:56:46.495Z,63.20
2023-04-02T13:02:14.779Z,62.99
2023-04-02T13:07:25.292Z,63.02
2023-04-02T13:12:38.673Z,59.66
2023-04-02T13:18:02.269Z,58.58
2023-04-02T13:23:27.134Z,62.25
2023-04-02T13:28:29.703Z,62.65
2023-04-02T13:33:32.002Z,58.41
2023-04-02T13:38:34.162Z,60.58
2023-04-02T13:43:36.977Z,56.15
2023-04-02T13:48:39.788Z,57.39
2023-04-02T13:53:42.262Z,56.06
2023-04-02T13:58:46.626Z,58.57
2023-04-02T14:03:49.054Z,56.95
2023-04-02T14:09:12.370Z,53.00
2023-04-02T14:14:45.556Z,55.09
2023-04-02T14:20:02.292Z,54.69
2023-04-02T14:25:23.561Z,57.74
2023-04-02T14:31:07.211Z,56.69
2023-04-02T14:36:36.594Z,56.60
2023-04-02T14:42:16.693Z,59.53
2023-04-02T14:47:29.984Z,61.12
2023-04-02T14:52:35.829Z,61.90
2023-04-02T14:57:52.577Z,63.81
2023-04-02T15:03:15.703Z,60.78
2023-04-02T15:09:08.786Z,62.77
2023-04-02T15:14:47.840Z,62.09
2023-04-02T15:19:56.546Z,63.23
2023-04-02T15:25:48.245Z,63.83
2023-04-02T15:30:57.423Z,63.36
2023-04-02T15:36:33.242Z,65.71
2023-04-02T15:41:42.803Z,67.01
2023-04-02T15:47:28.833Z,67.39
2023-04-02T15:53:01.277Z,68.83
2023-04-02T15:58:35.603Z,68.60
2023-04-02T16:04:20.626Z,71.68
2023-04-02T16:09:47.444Z,72.63
2023-04-02T16:14:50.440Z,71.98
2023-04-02T16:20:02.069Z,73.28
2023-04-02T16:25:16.583Z,75.39
2023-04-02T16:30:30.588Z,75.05
2023-04-02T16:36:24.177Z,76.75
2023-04-02T16:41:47.893Z,78.12
2023-04-02T16:47:17.809Z,78.67
2023-04-02T16:52:26.103Z,76.21
2023-04-02T16:57:40.454Z,79.14
2023-04-02T17:03:04.446Z,74.84
2023-04-02T17:08:24.584Z,77.92
2023-04-02T17:13:56.714Z,79.19
2023-04-02T17:18:59.143Z,77.56
2023-04-02T17:24:26.581Z,77.21
2023-04-02T17:29:39.548Z,79.57
2023-04-02T17:34:41.838Z,79.83
2023-04-02T17:40:09.263Z,77.29
2023-04-02T17:45:33.443Z,77.93
2023-04-02T17:50:54.286Z,76.45
2023-04-02T17:56:17.471Z,78.40
2023-04-02T18:01:35.817Z,78.52
2023-04-02T18:07:08.896Z,78.13
2023-04-02T18:12:22.209Z,79.59
2023-04-02T18:17:53.344Z,80.62
2023-04-02T18:23:12.173Z,80.45
2023-04-02T18:28:57.410Z,80.15
2023-04-02T18:34:24.469Z,81.01
2023-04-02T18:40:08.293Z,80.82
2023-04-02T18:45:44.882Z,82.43
2023-04-02T18:50:47.378Z,80.31
2023-04-02T18:56:01.734Z,81.14
2023-04-02T19:01:08.338Z,79.57
2023-04-02T19:06:19.462Z,80.91
2023-04-02T19:11:31.607Z,82.79
2023-04-02T19:17:16.951Z,84.70
2023-04-02T19:22:50.667Z,84.54
2023-04-02T19:28:44.896Z,83.25
2023-04-02T19:34:03.833Z,81.38
2023-04-02T19:39:31.452Z,82.40
2023-04-02T19:44:33.858Z,83.07
2023-04-02T19:49:36.389Z,81.40
2023-04-02T19:54:38.810Z,80.50
2023-04-02T19:59:41.123Z,81.68
2023-04-02T20:04:43.244Z,82.80
2023-04-02T20:09:45.314Z,83.82
2023-04-02T20:14:47.435Z,85.10
2023-04-02T20:19:49.534Z,84.86
2023-04-02T20:24:51.767Z,82.77
2023-04-02T20:29:53.891Z,85.14
2023-04-02T20:34:56.220Z,82.98
2023-04-02T20:39:58.731Z,83.69
2023-04-02T20:45:00.815Z,84.41
2023-04-02T20:50:03.296Z,83.02
2023-04-02T20:55:06.470Z,82.50
2023-04-02T21:00:10.282Z,81.50
2023-04-02T21:05:12.490Z,84.56
2023-04-02T21:10:14.725Z,82.58
2023-04-02T21:15:17.217Z,83.57
2023-04-02T21:20:19.529Z,81.21
2023-04-02T21:25:21.695Z,84.83
2023-04-02T21:30:24.092Z,84.04
2023-04-02T21:35:26.244Z,83.74
2023-04-02T21:40:28.420Z,85.18
2023-04-02T21:45:30.890Z,85.40
2023-04-02T21:50:33.221Z,84.30
2023-04-02T21:55:35.528Z,83.47
2023-04-02T22:00:37.936Z,82.77
2023-04-02T22:05:40.692Z,82.93
2023-04-02T22:10:43.022Z,82.04
2023-04-02T22:15:45.318Z,83.43
2023-04-02T22:20:47.639Z,80.66
2023-04-02T22:25:50.130Z,84.05
2023-04-02T22:30:52.837Z,84.15
2023-04-02T22:35:55.225Z,84.02
2023-04-02T22:41:23.200Z,83.56
2023-04-02T22:46:27.243Z,81.07
2023-04-02T22:51:30.567Z,80.89
2023-04-02T22:56:33.302Z,80.84
2023-04-02T23:01:37.025Z,81.59
2023-04-02T23:06:39.490Z,78.79
2023-04-02T23:11:41.758Z,78.21
2023-04-02T23:16:43.966Z,79.05
2023-04-02T23:21:46.039Z,79.07
2023-04-02T23:26:48.325Z,78.14
2023-04-02T23:31:51.057Z,77.81
2023-04-02T23:36:53.513Z,76.14
2023-04-02T23:41:55.949Z,77.09
2023-04-02T23:46:59.066Z,77.59
2023-04-02T23:52:01.407Z,76.17
2023-04-02T23:57:03.615Z,76.79
